createdAt,value
2018-05-11T19:44:21.765Z,26.60
2018-05-11T19:46:55.933Z,25.90
2018-05-11T19:49:25.363Z,27.73
2018-05-11T19:51:55.309Z,25.00
2018-05-11T19:54:24.068Z,23.27
2018-05-11T19:56:53.488Z,22.07
2018-05-11T19:59:22.905Z,20.97
2018-05-11T20:01:52.605Z,25.13
2018-05-11T20:04:22.174Z,21.37
2018-05-11T20:06:50.752Z,23.73
2018-05-11T20:09:19.431Z,21.47
2018-05-11T20:11:48.092Z,26.07
2018-05-11T20:14:16.782Z,25.93
2018-05-11T20:16:46.044Z,24.33
2018-05-11T20:19:15.502Z,19.93
2018-05-11T20:21:44.094Z,17.77
2018-05-11T20:24:12.815Z,20.57
2018-05-11T20:26:42.627Z,16.97
2018-05-11T20:29:12.325Z,18.27
2018-05-11T20:31:40.930Z,19.13
2018-05-11T20:34:10.390Z,16.10
2018-05-11T20:36:40.131Z,15.37
2018-05-11T20:39:09.542Z,16.53
2018-05-11T20:41:38.949Z,14.47
2018-05-11T20:44:07.566Z,15.90
2018-05-11T20:46:36.336Z,15.30
2018-05-11T20:49:05.731Z,14.23
2018-05-11T20:51:35.228Z,15.87
2018-05-11T20:54:04.640Z,15.20
2018-05-11T20:56:33.269Z,17.93
2018-05-11T20:59:02.206Z,13.03
2018-05-11T21:01:32.064Z,12.83
2018-05-11T21:04:01.685Z,14.63
2018-05-11T21:06:30.302Z,12.73
2018-05-11T21:08:59.942Z,12.47
2018-05-11T21:11:29.696Z,12.23
2018-05-11T21:13:58.312Z,12.27
2018-05-11T21:16:27.718Z,13.57
2018-05-11T21:18:57.597Z,12.40
2018-05-11T21:21:26.165Z,13.40
2018-05-11T21:23:54.696Z,12.23
2018-05-11T21:26:24.131Z,9.93
2018-05-11T21:28:53.908Z,11.43
2018-05-11T21:31:24.150Z,11.23
2018-05-11T21:33:53.367Z,12.33
2018-05-11T21:36:21.975Z,10.83
2018-05-11T21:38:50.570Z,12.73
2018-05-11T21:41:19.521Z,10.37
2018-05-11T21:43:48.733Z,11.07
2018-05-11T21:46:17.355Z,10.00
2018-05-11T21:48:45.958Z,10.23
2018-05-11T21:51:16.347Z,10.63
2018-05-11T21:53:44.960Z,11.17
2018-05-11T21:56:15.210Z,9.53
2018-05-11T21:58:44.540Z,10.37
2018-05-11T22:01:14.190Z,11.37
2018-05-11T22:03:44.148Z,11.10
2018-05-11T22:06:13.283Z,12.47
2018-05-11T22:08:41.786Z,10.73
2018-05-11T22:11:11.400Z,10.63
2018-05-11T22:13:46.218Z,11.10
2018-05-11T22:16:14.776Z,10.63
2018-05-11T22:18:44.130Z,10.80
2018-05-11T22:21:14.488Z,10.87
2018-05-11T22:23:43.289Z,9.13
2018-05-11T22:26:13.227Z,11.33
2018-05-11T22:28:41.788Z,10.00
2018-05-11T22:31:10.284Z,9.37
2018-05-11T22:33:40.046Z,10.97
2018-05-11T22:36:08.557Z,10.77
